Terminal Aerodrome Forecast
Issued by NWS Lake Charles, LA

Home | Current Version | Previous Version | Text Only | Print | Product List | Glossary On
Versions: 1 2 3 4 5 6 7 8 9 10 11 12 13 14 15 16 17 18 19 20 21 22 23 24
000
FTUS44 KLCH 032336
TAFARA
TAF
KARA 032336Z 0400/0424 17004KT P6SM VCSH SCT040 BKN120
     FM040200 VRB03KT P6SM FEW040 BKN150
     FM040900 00000KT P6SM FEW010
      TEMPO 0410/0413 5SM BR
     FM041400 VRB04KT P6SM SCT020 SCT040
     FM041800 17007KT P6SM VCTS FEW015CB BKN050 PROB30 0418/0424
      VRB12G20KT 3SM TSRA=

USA.gov is the U.S. government's official web portal to all federal, state and local government web resources and services.